Time;durP1;ratioP1;P1;durP2;ratioP2;P2;SDS_P1;SDS_P2;PMS_P1;PMS_P2;Temp;Humidity;BMP_temperature;BMP_pressure;BME280_temperature;BME280_humidity;BME280_pressure;Samples;Min_cycle;Max_cycle;Signal;HPM_P1;HPM_P2
2021/09/10 00:01:31;;;;;;;0.35;0.35;;;12.90;99.90;;;;;;5109964;28;20188;-73
2021/09/10 00:04:01;;;;;;;0.52;0.52;;;12.80;99.90;;;;;;5091921;28;20532;-73
2021/09/10 00:06:28;;;;;;;0.30;0.30;;;12.80;99.90;;;;;;5091744;28;20338;-73
2021/09/10 00:08:55;;;;;;;0.90;0.85;;;12.90;99.90;;;;;;5091849;28;20160;-73
2021/09/10 00:11:21;;;;;;;1.60;1.02;;;12.80;99.90;;;;;;5109837;28;20255;-74
2021/09/10 00:13:47;;;;;;;1.35;1.25;;;12.70;99.90;;;;;;5109744;28;20156;-75
2021/09/10 00:16:13;;;;;;;0.43;0.22;;;12.60;99.90;;;;;;5109671;28;20160;-74
2021/09/10 00:18:39;;;;;;;0.95;0.95;;;12.80;99.90;;;;;;5109597;28;20158;-74
2021/09/10 00:21:05;;;;;;;0.20;0.20;;;12.80;99.90;;;;;;5109617;28;20191;-74
2021/09/10 00:23:31;;;;;;;0.40;0.40;;;12.80;99.90;;;;;;5109457;28;20163;-74
2021/09/10 00:25:57;;;;;;;0.17;0.13;;;12.70;99.90;;;;;;5109521;28;20269;-74
2021/09/10 00:28:26;;;;;;;0.28;0.28;;;12.60;99.90;;;;;;5109223;28;20163;-74
2021/09/10 00:30:52;;;;;;;1.63;0.68;;;12.60;99.90;;;;;;5108565;28;20207;-74
2021/09/10 00:33:18;;;;;;;0.43;0.40;;;12.70;99.90;;;;;;5091358;28;20195;-75
2021/09/10 00:35:45;;;;;;;0.10;0.10;;;12.70;99.90;;;;;;5091456;28;20156;-74
2021/09/10 00:38:11;;;;;;;0.00;0.00;;;12.60;99.90;;;;;;5091462;28;20246;-74
2021/09/10 00:40:37;;;;;;;0.98;0.65;;;12.40;99.90;;;;;;5091200;28;20195;-75
2021/09/10 00:43:03;;;;;;;2.05;1.13;;;12.20;99.90;;;;;;5109519;28;20221;-75
2021/09/10 00:45:29;;;;;;;0.28;0.20;;;12.40;99.90;;;;;;5091167;28;20175;-74
2021/09/10 00:47:56;;;;;;;0.20;0.20;;;12.30;99.90;;;;;;5086170;28;20187;-73
2021/09/10 00:50:29;;;;;;;0.00;0.00;;;12.20;99.90;;;;;;5079520;27;1460470;-72
2021/09/10 00:52:55;;;;;;;0.17;0.17;;;12.20;99.90;;;;;;5087232;28;20220;-72
2021/09/10 00:55:25;;;;;;;0.40;0.40;;;12.30;99.90;;;;;;5105581;28;20219;-72
2021/09/10 00:57:52;;;;;;;0.57;0.57;;;12.40;99.90;;;;;;5087073;28;20167;-72
2021/09/10 01:00:18;;;;;;;0.70;0.38;;;12.30;99.90;;;;;;5085635;28;20195;-73
2021/09/10 01:02:45;;;;;;;0.77;0.73;;;12.30;99.90;;;;;;5066893;28;20164;-72
2021/09/10 01:05:12;;;;;;;0.35;0.35;;;12.20;99.90;;;;;;5085027;28;20152;-72
2021/09/10 01:07:40;;;;;;;0.50;0.50;;;12.20;99.90;;;;;;5085071;28;20152;-73
2021/09/10 01:10:07;;;;;;;0.15;0.15;;;12.10;99.90;;;;;;5084584;28;20207;-73
2021/09/10 01:12:33;;;;;;;0.35;0.32;;;11.90;99.90;;;;;;5066834;28;20168;-73
2021/09/10 01:15:01;;;;;;;0.30;0.30;;;11.90;99.90;;;;;;5084825;28;20180;-73
2021/09/10 01:17:27;;;;;;;1.10;0.63;;;11.90;99.90;;;;;;5084738;28;20161;-73
2021/09/10 01:19:53;;;;;;;0.28;0.28;;;12.00;99.90;;;;;;5084619;28;20260;-72
2021/09/10 01:22:18;;;;;;;0.30;0.30;;;12.10;99.90;;;;;;5084614;28;20598;-72
2021/09/10 01:25:12;;;;;;;0.20;0.20;;;11.90;99.90;;;;;;5084780;28;20157;-72
2021/09/10 01:27:47;;;;;;;3.10;0.85;;;11.90;99.90;;;;;;5066643;28;20182;-73
2021/09/10 01:30:15;;;;;;;0.20;0.20;;;12.10;99.90;;;;;;5084780;28;20195;-73
2021/09/10 01:32:42;;;;;;;0.50;0.50;;;12.10;99.90;;;;;;5084572;28;20164;-74
2021/09/10 01:35:09;;;;;;;0.05;0.05;;;11.90;99.90;;;;;;5084629;28;20163;-74
2021/09/10 01:37:35;;;;;;;0.88;0.52;;;11.90;99.90;;;;;;5066664;28;20160;-73
2021/09/10 01:40:03;;;;;;;0.40;0.38;;;11.90;99.90;;;;;;5084490;28;20196;-73
2021/09/10 01:42:29;;;;;;;0.00;0.00;;;12.00;99.90;;;;;;5066481;28;20165;-72
2021/09/10 01:44:55;;;;;;;9.52;2.42;;;11.90;99.90;;;;;;5084324;28;20172;-72
2021/09/10 01:47:21;;;;;;;1.80;0.90;;;11.90;99.90;;;;;;5084162;28;20165;-72
2021/09/10 01:49:47;;;;;;;0.70;0.70;;;11.80;99.90;;;;;;5065656;28;20227;-73
2021/09/10 01:52:13;;;;;;;0.15;0.15;;;11.90;99.90;;;;;;5066186;28;20236;-72
2021/09/10 01:54:39;;;;;;;4.05;0.40;;;11.90;99.90;;;;;;5083972;28;20191;-73
2021/09/10 01:57:05;;;;;;;0.80;0.80;;;11.80;99.90;;;;;;5083913;28;20180;-72
2021/09/10 01:59:31;;;;;;;0.60;0.60;;;11.80;99.90;;;;;;5065792;28;20241;-73
2021/09/10 02:01:58;;;;;;;0.55;0.55;;;11.90;99.90;;;;;;5070139;28;20176;-72
2021/09/10 02:04:24;;;;;;;0.35;0.35;;;11.80;99.90;;;;;;5070785;28;20149;-73
2021/09/10 02:06:50;;;;;;;0.40;0.40;;;11.70;99.90;;;;;;5070836;28;20157;-72
2021/09/10 02:09:16;;;;;;;1.70;1.25;;;11.80;99.90;;;;;;5052357;28;20208;-73
2021/09/10 02:11:41;;;;;;;0.88;0.88;;;11.70;99.90;;;;;;5052588;28;20207;-73
2021/09/10 02:14:08;;;;;;;0.70;0.70;;;11.60;99.90;;;;;;5070567;28;20157;-72
2021/09/10 02:16:34;;;;;;;1.50;1.40;;;11.50;99.90;;;;;;5070649;28;20165;-73
2021/09/10 02:19:00;;;;;;;0.45;0.38;;;11.50;99.90;;;;;;5052703;28;20207;-73
2021/09/10 02:21:26;;;;;;;0.35;0.35;;;11.40;99.90;;;;;;5070605;28;20164;-73
2021/09/10 02:23:52;;;;;;;1.38;1.27;;;11.40;99.90;;;;;;5052511;28;20177;-72
2021/09/10 02:26:18;;;;;;;0.52;0.52;;;11.50;99.90;;;;;;5070558;28;20224;-73
2021/09/10 02:28:43;;;;;;;0.95;0.60;;;11.60;99.90;;;;;;5070329;28;20204;-72
2021/09/10 02:31:09;;;;;;;0.35;0.35;;;11.50;99.90;;;;;;5070346;28;20156;-73
2021/09/10 02:33:35;;;;;;;0.57;0.57;;;11.40;99.90;;;;;;5052457;28;20179;-74
2021/09/10 02:36:01;;;;;;;0.00;0.00;;;11.40;99.90;;;;;;5070180;28;20157;-72
2021/09/10 02:38:27;;;;;;;0.20;0.20;;;11.30;99.90;;;;;;5052179;28;20259;-73
2021/09/10 02:40:53;;;;;;;0.40;0.40;;;11.40;99.90;;;;;;5070170;28;20165;-73
2021/09/10 02:43:19;;;;;;;0.30;0.30;;;11.30;99.90;;;;;;5052299;28;20630;-72
2021/09/10 02:45:45;;;;;;;0.20;0.20;;;11.40;99.90;;;;;;5070043;28;20251;-73
2021/09/10 02:48:11;;;;;;;0.22;0.15;;;11.30;99.90;;;;;;5069833;28;20165;-73
2021/09/10 02:50:38;;;;;;;1.73;1.63;;;11.20;99.90;;;;;;5069852;28;20219;-74
2021/09/10 02:53:03;;;;;;;0.55;0.55;;;11.10;99.90;;;;;;5052086;28;20187;-74
2021/09/10 02:55:30;;;;;;;0.40;0.40;;;11.00;99.90;;;;;;5069921;28;20192;-74
2021/09/10 02:57:56;;;;;;;0.57;0.57;;;11.00;99.90;;;;;;5069851;28;20190;-74
2021/09/10 03:00:22;;;;;;;1.27;1.20;;;11.10;99.90;;;;;;5069759;28;20161;-75
2021/09/10 03:02:48;;;;;;;0.03;0.03;;;11.10;99.90;;;;;;5069550;28;20498;-73
2021/09/10 03:05:14;;;;;;;0.93;0.93;;;11.10;99.90;;;;;;5069675;28;20199;-74
2021/09/10 03:07:40;;;;;;;2.55;1.23;;;11.20;99.90;;;;;;5069569;28;20176;-74
2021/09/10 03:10:07;;;;;;;0.20;0.20;;;11.10;99.90;;;;;;5051934;28;20200;-73
2021/09/10 03:12:37;;;;;;;0.80;0.70;;;11.10;99.90;;;;;;5069146;28;20172;-73
2021/09/10 03:15:06;;;;;;;0.63;0.63;;;11.10;99.90;;;;;;5069874;28;20208;-74
2021/09/10 03:17:32;;;;;;;0.55;0.38;;;11.10;99.90;;;;;;5069366;28;20191;-73
2021/09/10 03:19:57;;;;;;;0.40;0.40;;;11.20;99.90;;;;;;5069506;28;20169;-73
2021/09/10 03:22:24;;;;;;;0.45;0.45;;;11.10;99.90;;;;;;5051216;28;20230;-73
2021/09/10 03:24:49;;;;;;;0.70;0.65;;;11.20;99.90;;;;;;5051246;28;20197;-74
2021/09/10 03:27:15;;;;;;;0.40;0.40;;;11.20;99.90;;;;;;5051095;28;20183;-74
2021/09/10 03:29:41;;;;;;;1.63;1.52;;;11.10;99.90;;;;;;5068888;28;20188;-73
2021/09/10 03:32:07;;;;;;;0.20;0.20;;;11.00;99.90;;;;;;5068971;28;20157;-74
2021/09/10 03:34:33;;;;;;;0.30;0.30;;;11.00;99.90;;;;;;5068824;28;20637;-73
2021/09/10 03:36:59;;;;;;;1.23;0.75;;;10.90;99.90;;;;;;5068829;28;20169;-72
2021/09/10 03:39:25;;;;;;;2.22;1.10;;;10.90;99.90;;;;;;5068858;28;20168;-73
2021/09/10 03:41:51;;;;;;;0.30;0.30;;;10.90;99.90;;;;;;5050644;28;20204;-73
2021/09/10 03:44:17;;;;;;;3.70;0.63;;;10.90;99.90;;;;;;5068683;28;20237;-73
2021/09/10 03:46:43;;;;;;;0.50;0.50;;;10.90;99.90;;;;;;5068780;28;20188;-74
2021/09/10 03:49:09;;;;;;;0.60;0.60;;;10.90;99.90;;;;;;5068546;28;20236;-73
2021/09/10 03:51:35;;;;;;;0.65;0.57;;;10.90;99.90;;;;;;5050550;28;20165;-73
2021/09/10 03:54:01;;;;;;;0.93;0.85;;;10.80;99.90;;;;;;5068640;28;20530;-73
2021/09/10 03:56:26;;;;;;;1.00;0.90;;;10.80;99.90;;;;;;5068482;28;20207;-73
2021/09/10 03:58:52;;;;;;;0.50;0.50;;;10.80;99.90;;;;;;5068594;28;20160;-73
2021/09/10 04:01:18;;;;;;;0.15;0.15;;;10.70;99.90;;;;;;5068197;28;20172;-73
2021/09/10 04:03:44;;;;;;;0.75;0.30;;;10.60;99.90;;;;;;5050358;28;20207;-73
2021/09/10 04:06:10;;;;;;;3.90;1.95;;;10.60;99.90;;;;;;5050269;28;20227;-73
2021/09/10 04:08:37;;;;;;;1.80;1.70;;;10.60;99.90;;;;;;5068172;28;20193;-73
2021/09/10 04:11:03;;;;;;;11.30;1.95;;;10.60;99.90;;;;;;5050069;28;20172;-73
2021/09/10 04:13:29;;;;;;;0.75;0.73;;;10.50;99.90;;;;;;5050035;28;20179;-72
2021/09/10 04:15:55;;;;;;;0.22;0.22;;;10.60;99.90;;;;;;5068077;28;20195;-72
2021/09/10 04:18:21;;;;;;;1.75;1.20;;;10.70;99.90;;;;;;5068151;28;20602;-72
2021/09/10 04:20:47;;;;;;;0.10;0.10;;;10.70;99.90;;;;;;5047179;28;20231;-73
2021/09/10 04:23:13;;;;;;;1.40;1.30;;;10.70;99.90;;;;;;5066963;28;20165;-73
2021/09/10 04:25:39;;;;;;;0.45;0.45;;;10.60;99.90;;;;;;5049483;28;20515;-72
2021/09/10 04:28:07;;;;;;;0.38;0.38;;;10.60;99.90;;;;;;5065385;28;20302;-72
2021/09/10 04:30:33;;;;;;;0.30;0.30;;;10.70;99.90;;;;;;5064689;28;20283;-72
2021/09/10 04:32:59;;;;;;;0.75;0.75;;;10.80;99.90;;;;;;5064552;28;20169;-73
2021/09/10 04:35:25;;;;;;;0.85;0.85;;;10.80;99.90;;;;;;5065216;28;20200;-73
2021/09/10 04:37:51;;;;;;;1.00;1.00;;;10.80;99.90;;;;;;5067621;28;20180;-73
2021/09/10 04:40:18;;;;;;;0.65;0.65;;;10.70;99.90;;;;;;5067875;28;20168;-72
2021/09/10 04:42:45;;;;;;;0.05;0.05;;;10.80;99.90;;;;;;5049808;28;20290;-72
2021/09/10 04:45:12;;;;;;;0.75;0.75;;;10.80;99.90;;;;;;5067681;28;20200;-73
2021/09/10 04:47:37;;;;;;;0.47;0.47;;;10.80;99.90;;;;;;5049759;28;20172;-74
2021/09/10 04:50:05;;;;;;;0.10;0.10;;;10.80;99.90;;;;;;5046181;28;20320;-73
2021/09/10 04:52:32;;;;;;;0.57;0.38;;;10.80;99.90;;;;;;5047803;28;20154;-74
2021/09/10 04:54:58;;;;;;;1.08;0.98;;;10.80;99.90;;;;;;5047805;28;20193;-73
2021/09/10 04:57:24;;;;;;;1.23;1.23;;;11.00;99.90;;;;;;5047715;28;20213;-73
2021/09/10 04:59:53;;;;;;;1.02;1.02;;;11.10;99.90;;;;;;5047931;28;20192;-72
2021/09/10 05:02:19;;;;;;;2.03;0.70;;;11.20;99.90;;;;;;5046306;28;20188;-72
2021/09/10 05:04:45;;;;;;;13.68;1.65;;;11.40;99.90;;;;;;5046175;28;20227;-72
2021/09/10 05:07:11;;;;;;;0.55;0.55;;;11.60;99.90;;;;;;5047428;28;20237;-72
2021/09/10 05:09:37;;;;;;;0.88;0.88;;;11.80;99.90;;;;;;5046121;28;20204;-72
2021/09/10 05:12:04;;;;;;;0.38;0.28;;;12.10;99.90;;;;;;5046123;28;20165;-73
2021/09/10 05:14:30;;;;;;;0.85;0.85;;;12.50;99.90;;;;;;5046092;28;20166;-72
2021/09/10 05:16:56;;;;;;;0.68;0.68;;;13.00;99.90;;;;;;5046220;28;20162;-73
2021/09/10 05:19:22;;;;;;;19.85;0.93;;;13.70;99.90;;;;;;5047421;28;20269;-72
2021/09/10 05:21:48;;;;;;;0.98;0.98;;;14.00;99.90;;;;;;5047115;28;20166;-73
2021/09/10 05:24:14;;;;;;;0.52;0.52;;;14.80;99.90;;;;;;5046037;28;20165;-73
2021/09/10 05:26:40;;;;;;;0.77;0.77;;;15.40;99.90;;;;;;5045782;28;20205;-73
2021/09/10 05:29:06;;;;;;;0.55;0.55;;;16.00;99.90;;;;;;5047176;28;20190;-72
2021/09/10 05:31:32;;;;;;;0.30;0.30;;;16.30;99.90;;;;;;5047300;28;20166;-74
2021/09/10 05:33:58;;;;;;;4.50;1.70;;;16.70;99.90;;;;;;5047361;28;20165;-74
2021/09/10 05:36:24;;;;;;;1.05;0.65;;;17.00;99.90;;;;;;5049444;28;20193;-76
2021/09/10 05:38:49;;;;;;;1.13;1.13;;;16.70;99.90;;;;;;5050976;28;20169;-73
2021/09/10 05:41:16;;;;;;;1.65;1.13;;;16.70;99.90;;;;;;5040019;28;20241;-75
2021/09/10 05:43:42;;;;;;;2.88;0.95;;;16.80;99.90;;;;;;5048647;28;20265;-75
2021/09/10 05:46:08;;;;;;;1.45;0.75;;;16.80;99.90;;;;;;5031132;28;20194;-76
2021/09/10 05:48:35;;;;;;;6.28;1.50;;;17.00;99.90;;;;;;5039259;28;20261;-76
2021/09/10 05:51:01;;;;;;;27.48;1.48;;;16.90;99.90;;;;;;5052728;28;20185;-75
2021/09/10 05:53:29;;;;;;;0.63;0.63;;;17.40;99.90;;;;;;5052131;28;20247;-76
2021/09/10 05:55:56;;;;;;;1.42;1.33;;;18.00;99.90;;;;;;5068937;28;20185;-76
2021/09/10 05:58:21;;;;;;;0.98;0.73;;;18.40;99.90;;;;;;5068494;28;20172;-75
2021/09/10 06:00:47;;;;;;;1.00;0.68;;;18.40;99.90;;;;;;5051858;28;20200;-77
2021/09/10 06:03:13;;;;;;;2.88;1.05;;;17.80;99.90;;;;;;5069966;28;20165;-76
2021/09/10 06:05:40;;;;;;;4.47;1.45;;;17.20;99.90;;;;;;5070117;28;20212;-79
2021/09/10 06:08:09;;;;;;;2.17;1.55;;;16.90;99.90;;;;;;5053917;28;20164;-78
2021/09/10 06:10:35;;;;;;;1.42;1.33;;;16.90;99.90;;;;;;5055897;28;20208;-75
2021/09/10 06:13:01;;;;;;;0.30;0.30;;;17.10;99.90;;;;;;5052870;28;20161;-74
2021/09/10 06:15:26;;;;;;;1.45;1.00;;;16.40;99.90;;;;;;5052077;28;20223;-75
2021/09/10 06:17:52;;;;;;;0.63;0.63;;;16.00;99.90;;;;;;5069716;28;20191;-75
2021/09/10 06:20:18;;;;;;;1.63;1.33;;;15.90;99.90;;;;;;5069790;28;20240;-76
2021/09/10 06:22:44;;;;;;;4.18;1.27;;;15.50;99.90;;;;;;5070160;28;20661;-76
2021/09/10 06:25:10;;;;;;;3.03;1.65;;;15.60;99.90;;;;;;5069929;28;20258;-77
2021/09/10 06:27:41;;;;;;;2.13;1.92;;;15.70;99.90;;;;;;5051859;28;20173;-77
2021/09/10 06:30:07;;;;;;;1.17;1.02;;;15.90;99.90;;;;;;5069858;28;20192;-77
2021/09/10 06:32:34;;;;;;;0.95;0.95;;;16.00;99.90;;;;;;5069327;28;20189;-76
2021/09/10 06:35:00;;;;;;;0.75;0.75;;;16.30;99.90;;;;;;5069780;28;20634;-77
2021/09/10 06:37:27;;;;;;;0.32;0.32;;;16.70;99.90;;;;;;5069801;28;20161;-76
2021/09/10 06:39:53;;;;;;;0.30;0.30;;;17.70;99.90;;;;;;5051452;28;20204;-77
2021/09/10 06:42:19;;;;;;;1.10;1.05;;;19.30;99.90;;;;;;5051527;28;20196;-79
2021/09/10 06:44:45;;;;;;;1.00;1.00;;;20.60;99.90;;;;;;5051846;28;20187;-79
2021/09/10 06:47:11;;;;;;;1.95;1.30;;;20.90;99.90;;;;;;5069015;28;20213;-75
2021/09/10 06:49:37;;;;;;;3.33;1.60;;;21.40;99.90;;;;;;5047791;28;20278;-75
2021/09/10 06:52:03;;;;;;;1.08;1.08;;;22.40;99.90;;;;;;5062009;28;20247;-73
2021/09/10 06:54:29;;;;;;;3.50;1.63;;;22.40;99.90;;;;;;5046280;28;20175;-74
2021/09/10 06:56:55;;;;;;;6.03;1.25;;;22.70;99.90;;;;;;5061266;28;20191;-74
2021/09/10 06:59:20;;;;;;;1.05;0.68;;;23.10;99.90;;;;;;5045350;28;20294;-74
2021/09/10 07:01:47;;;;;;;1.58;1.38;;;23.00;99.90;;;;;;5045176;28;20230;-73
2021/09/10 07:04:13;;;;;;;3.78;1.63;;;22.80;99.90;;;;;;5049286;28;20191;-74
2021/09/10 07:06:39;;;;;;;7.18;1.67;;;22.90;99.90;;;;;;5048900;28;20216;-75
2021/09/10 07:09:05;;;;;;;3.05;2.05;;;23.10;99.90;;;;;;5066931;28;20267;-74
2021/09/10 07:11:35;;;;;;;1.85;0.90;;;24.00;99.90;;;;;;5064867;28;20278;-73
2021/09/10 07:14:02;;;;;;;1.17;1.10;;;24.20;99.90;;;;;;5044923;28;20200;-74
2021/09/10 07:16:28;;;;;;;2.15;1.38;;;25.00;99.90;;;;;;5066775;28;20188;-74
2021/09/10 07:18:54;;;;;;;1.48;1.38;;;25.30;99.90;;;;;;5048109;28;20220;-74
2021/09/10 07:21:20;;;;;;;1.23;1.05;;;24.90;99.90;;;;;;5050182;28;20639;-74
2021/09/10 07:23:46;;;;;;;0.98;0.95;;;24.10;99.90;;;;;;5064866;28;20203;-75
2021/09/10 07:26:12;;;;;;;5.70;2.80;;;24.00;99.90;;;;;;5067762;28;20168;-74
2021/09/10 07:28:39;;;;;;;3.80;1.63;;;24.80;99.90;;;;;;5068059;28;20576;-73
2021/09/10 07:31:06;;;;;;;1.38;1.15;;;24.80;99.90;;;;;;5050119;28;20734;-74
2021/09/10 07:33:36;;;;;;;7.40;2.50;;;24.70;99.90;;;;;;5061964;28;20198;-73
2021/09/10 07:36:03;;;;;;;1.08;0.45;;;23.80;99.90;;;;;;5065268;28;20194;-73
2021/09/10 07:38:29;;;;;;;1.52;1.42;;;24.00;99.90;;;;;;5066049;28;20203;-75
2021/09/10 07:40:55;;;;;;;1.23;0.73;;;25.00;99.90;;;;;;5042929;28;20213;-74
2021/09/10 07:43:21;;;;;;;2.00;1.27;;;24.60;99.90;;;;;;5067365;28;20250;-73
2021/09/10 07:45:47;;;;;;;1.67;1.55;;;23.80;99.90;;;;;;5062103;28;20208;-74
2021/09/10 07:48:13;;;;;;;0.60;0.60;;;24.20;99.90;;;;;;5064801;28;20246;-74
2021/09/10 07:50:39;;;;;;;1.92;0.93;;;24.90;99.90;;;;;;5067459;28;20231;-74
2021/09/10 07:53:05;;;;;;;1.30;1.15;;;25.00;99.90;;;;;;5067669;28;20180;-74
2021/09/10 07:55:31;;;;;;;0.77;0.77;;;25.40;99.90;;;;;;5067353;28;20192;-74
2021/09/10 07:57:57;;;;;;;1.20;0.93;;;25.10;99.90;;;;;;5064609;28;20196;-74
2021/09/10 08:00:22;;;;;;;0.90;0.73;;;25.70;99.90;;;;;;5065378;28;20178;-74
2021/09/10 08:02:49;;;;;;;0.47;0.47;;;24.90;99.90;;;;;;5063794;28;20282;-74
2021/09/10 08:05:16;;;;;;;0.82;0.82;;;24.10;99.90;;;;;;5065209;28;20199;-75
2021/09/10 08:07:43;;;;;;;1.02;1.00;;;23.90;99.90;;;;;;5065152;28;20168;-74
2021/09/10 08:10:16;;;;;;;0.77;0.65;;;24.10;99.90;;;;;;5064795;28;20276;-76
2021/09/10 08:12:47;;;;;;;0.65;0.52;;;24.90;99.90;;;;;;5043530;28;20256;-74
2021/09/10 08:15:14;;;;;;;0.77;0.65;;;24.70;99.30;;;;;;5048255;28;20258;-74
2021/09/10 08:17:41;;;;;;;1.63;0.98;;;25.00;98.80;;;;;;5064973;28;20164;-73
2021/09/10 08:20:08;;;;;;;1.58;0.75;;;24.30;99.60;;;;;;5064697;28;20200;-74
2021/09/10 08:22:35;;;;;;;0.20;0.20;;;24.70;99.90;;;;;;5048238;28;20195;-74
2021/09/10 08:25:04;;;;;;;0.98;0.75;;;25.40;99.20;;;;;;5066502;28;20196;-74
2021/09/10 08:27:30;;;;;;;1.00;1.00;;;25.90;99.60;;;;;;5067363;28;20159;-74
2021/09/10 08:29:56;;;;;;;1.85;1.40;;;25.90;99.60;;;;;;5049629;28;20231;-75
2021/09/10 08:32:23;;;;;;;8.18;1.42;;;26.60;97.30;;;;;;5066301;28;20180;-75
2021/09/10 08:34:49;;;;;;;0.60;0.45;;;25.40;99.20;;;;;;5065984;28;20333;-74
2021/09/10 08:37:15;;;;;;;3.55;1.40;;;25.80;99.80;;;;;;5049531;28;20168;-75
2021/09/10 08:39:41;;;;;;;0.93;0.93;;;26.10;98.60;;;;;;5050146;28;20327;-75
2021/09/10 08:42:08;;;;;;;0.85;0.85;;;25.70;98.20;;;;;;5050120;28;20207;-75
2021/09/10 08:44:37;;;;;;;2.90;1.13;;;26.30;97.90;;;;;;5068203;28;20565;-74
2021/09/10 08:47:03;;;;;;;3.42;1.63;;;26.50;97.90;;;;;;5049610;28;20236;-74
2021/09/10 08:49:29;;;;;;;1.73;1.00;;;25.00;99.90;;;;;;5045794;28;20713;-74
2021/09/10 08:51:55;;;;;;;0.88;0.75;;;25.50;99.90;;;;;;5047396;28;20191;-74
2021/09/10 08:54:21;;;;;;;1.27;1.17;;;26.20;98.20;;;;;;5047376;28;20639;-76
2021/09/10 08:56:47;;;;;;;0.90;0.90;;;25.80;96.90;;;;;;5047424;28;20161;-74
2021/09/10 08:59:18;;;;;;;0.73;0.68;;;24.70;98.50;;;;;;5047453;28;20653;-75
2021/09/10 09:01:53;;;;;;;0.60;0.60;;;24.70;98.40;;;;;;5047522;28;20215;-76
2021/09/10 09:04:20;;;;;;;0.80;0.80;;;25.40;97.50;;;;;;5047615;28;20653;-75
2021/09/10 09:06:54;;;;;;;0.70;0.70;;;25.50;97.60;;;;;;5047558;28;20165;-80
2021/09/10 09:09:41;;;;;;;0.35;0.35;;;25.30;97.50;;;;;;5045793;28;20216;-81
2021/09/10 09:12:30;;;;;;;2.20;1.17;;;25.30;97.70;;;;;;5049736;28;20169;-78
2021/09/10 09:15:06;;;;;;;0.63;0.47;;;25.00;98.00;;;;;;5051155;28;20188;-78
2021/09/10 09:17:39;;;;;;;1.45;0.80;;;25.30;97.40;;;;;;5049933;28;20156;-79
2021/09/10 09:20:20;;;;;;;0.55;0.55;;;25.90;98.40;;;;;;5051420;28;20161;-77
2021/09/10 09:23:07;;;;;;;2.17;1.50;;;26.40;96.90;;;;;;5049960;28;20176;-77
2021/09/10 09:25:44;;;;;;;1.10;0.98;;;26.90;98.10;;;;;;5051260;28;20161;-77
2021/09/10 09:28:28;;;;;;;0.60;0.60;;;27.40;96.10;;;;;;5049997;28;20164;-77
2021/09/10 09:31:02;;;;;;;1.98;1.88;;;27.50;97.20;;;;;;5049751;28;20181;-77
2021/09/10 09:33:37;;;;;;;0.80;0.80;;;27.20;95.80;;;;;;5051058;28;20187;-76
2021/09/10 09:36:05;;;;;;;0.77;0.60;;;26.40;97.10;;;;;;5051110;28;20163;-76
2021/09/10 09:38:34;;;;;;;0.70;0.70;;;26.10;97.80;;;;;;5051083;28;20153;-79
2021/09/10 09:41:06;;;;;;;1.23;1.13;;;26.20;98.30;;;;;;5066268;28;20305;-78
2021/09/10 09:43:38;;;;;;;15.15;1.67;;;26.70;97.20;;;;;;5049596;28;20193;-78
2021/09/10 09:46:19;;;;;;;0.80;0.80;;;25.70;98.40;;;;;;5059751;28;20196;-78
2021/09/10 09:48:47;;;;;;;0.30;0.20;;;25.30;98.00;;;;;;5054535;28;20220;-77
2021/09/10 09:51:15;;;;;;;0.90;0.90;;;26.10;97.30;;;;;;5048989;28;20164;-79
2021/09/10 09:53:43;;;;;;;0.90;0.90;;;26.30;96.40;;;;;;5065397;28;20247;-78
2021/09/10 09:56:09;;;;;;;1.20;1.00;;;25.70;97.10;;;;;;5050085;28;20180;-78
2021/09/10 09:58:36;;;;;;;0.40;0.40;;;25.60;97.00;;;;;;5050386;28;20215;-79
2021/09/10 10:01:03;;;;;;;1.55;0.63;;;25.80;99.10;;;;;;5047542;28;20188;-78
2021/09/10 10:03:29;;;;;;;1.05;0.75;;;26.20;99.00;;;;;;5049172;28;20274;-79
2021/09/10 10:06:01;;;;;;;0.65;0.65;;;26.00;97.10;;;;;;5048288;28;20216;-78
2021/09/10 10:08:42;;;;;;;0.60;0.60;;;25.40;97.60;;;;;;5049863;28;20188;-78
2021/09/10 10:11:13;;;;;;;0.88;0.82;;;26.40;98.40;;;;;;5047387;28;20196;-77
2021/09/10 10:13:39;;;;;;;1.13;1.05;;;27.30;97.30;;;;;;5046188;28;20171;-78
2021/09/10 10:16:05;;;;;;;2.05;0.45;;;28.20;95.00;;;;;;5045490;28;20173;-78
2021/09/10 10:18:43;;;;;;;0.95;0.93;;;28.60;94.80;;;;;;5047467;28;20212;-78
2021/09/10 10:21:14;;;;;;;2.67;1.52;;;28.10;96.10;;;;;;5064637;28;20243;-79
2021/09/10 10:23:45;;;;;;;0.65;0.47;;;28.10;94.70;;;;;;5065418;28;20169;-78
2021/09/10 10:26:16;;;;;;;0.75;0.75;;;28.50;95.20;;;;;;5049178;28;20161;-79
2021/09/10 10:28:45;;;;;;;2.15;0.57;;;28.40;94.40;;;;;;5045713;28;20713;-76
2021/09/10 10:31:12;;;;;;;0.65;0.63;;;27.80;96.60;;;;;;5048357;28;20183;-76
2021/09/10 10:34:05;;;;;;;2.15;0.60;;;27.70;96.30;;;;;;5045837;28;20197;-75
2021/09/10 10:36:38;;;;;;;2.03;1.00;;;27.80;96.30;;;;;;5045382;28;20208;-75
2021/09/10 10:39:13;;;;;;;1.13;0.57;;;26.80;95.50;;;;;;5048666;28;20606;-76
2021/09/10 10:41:46;;;;;;;0.20;0.20;;;27.60;97.80;;;;;;5039275;28;20183;-77
2021/09/10 10:44:33;;;;;;;0.77;0.77;;;29.10;93.80;;;;;;5046970;28;20193;-76
2021/09/10 10:47:08;;;;;;;1.13;0.82;;;28.50;96.30;;;;;;5047354;28;20172;-75
2021/09/10 10:49:35;;;;;;;2.53;1.42;;;29.30;93.80;;;;;;5055846;28;20231;-75
2021/09/10 10:52:01;;;;;;;0.85;0.82;;;28.00;94.50;;;;;;5066665;28;20192;-75
2021/09/10 10:54:30;;;;;;;0.38;0.38;;;27.60;95.70;;;;;;5065825;28;20275;-75
2021/09/10 10:56:58;;;;;;;0.68;0.68;;;27.80;96.70;;;;;;5050544;28;20180;-76
2021/09/10 10:59:26;;;;;;;1.30;1.20;;;28.30;95.10;;;;;;5069040;28;20183;-75
2021/09/10 11:02:31;;;;;;;0.73;0.73;;;28.20;95.00;;;;;;5051149;28;20164;-75
2021/09/10 11:05:02;;;;;;;0.65;0.57;;;29.00;95.20;;;;;;5069024;28;20582;-75
2021/09/10 11:07:29;;;;;;;1.60;0.43;;;28.90;93.90;;;;;;5050512;28;20198;-75
2021/09/10 11:10:04;;;;;;;0.73;0.73;;;29.10;92.50;;;;;;5067583;28;20211;-75
2021/09/10 11:12:31;;;;;;;0.57;0.40;;;29.80;93.00;;;;;;5069118;28;20174;-75
2021/09/10 11:14:59;;;;;;;0.88;0.88;;;29.60;93.20;;;;;;5050842;28;20200;-75
2021/09/10 11:17:28;;;;;;;0.73;0.70;;;29.60;93.50;;;;;;5069208;28;20163;-74
2021/09/10 11:19:58;;;;;;;0.70;0.70;;;29.60;93.60;;;;;;5068338;28;20163;-75
2021/09/10 11:22:27;;;;;;;0.45;0.45;;;29.50;94.00;;;;;;5068804;28;20175;-75
2021/09/10 11:25:19;;;;;;;1.50;1.00;;;27.90;95.70;;;;;;5050549;28;20207;-77
2021/09/10 11:27:45;;;;;;;0.77;0.70;;;28.80;94.70;;;;;;5048687;28;20223;-75
2021/09/10 11:30:13;;;;;;;0.60;0.60;;;29.10;95.70;;;;;;5050595;28;20191;-75
2021/09/10 11:32:40;;;;;;;1.77;0.85;;;29.50;93.20;;;;;;5050299;28;20236;-75
2021/09/10 11:35:25;;;;;;;1.38;1.30;;;28.60;94.00;;;;;;5068036;28;20211;-75
2021/09/10 11:37:57;;;;;;;1.27;0.70;;;28.80;94.30;;;;;;5050490;28;20160;-75
2021/09/10 11:40:45;;;;;;;0.65;0.50;;;29.90;92.20;;;;;;5067061;28;20168;-75
2021/09/10 11:43:19;;;;;;;0.95;0.90;;;30.00;91.80;;;;;;5050121;28;20241;-76
2021/09/10 11:45:49;;;;;;;2.42;1.38;;;28.50;95.40;;;;;;5068073;28;20191;-77
2021/09/10 11:48:26;;;;;;;0.35;0.32;;;29.90;92.90;;;;;;5050126;28;20176;-78
2021/09/10 11:51:08;;;;;;;2.58;0.65;;;30.90;92.50;;;;;;5050439;28;20186;-76
2021/09/10 11:53:45;;;;;;;1.75;0.55;;;31.10;94.00;;;;;;5050248;28;20183;-75
2021/09/10 11:56:12;;;;;;;1.45;0.57;;;30.70;92.50;;;;;;5049844;28;20225;-76
2021/09/10 11:58:41;;;;;;;1.23;0.85;;;30.50;92.70;;;;;;5068105;28;20184;-75
2021/09/10 12:01:43;;;;;;;0.22;0.20;;;31.60;90.30;;;;;;5050105;28;20206;-75
2021/09/10 12:04:11;;;;;;;0.77;0.70;;;31.90;89.00;;;;;;4989686;28;20174;-75
2021/09/10 12:06:46;;;;;;;1.00;0.93;;;31.00;90.70;;;;;;5006190;28;20240;-74
2021/09/10 12:09:17;;;;;;;1.58;0.50;;;27.90;95.40;;;;;;5006182;28;20208;-75
2021/09/10 12:12:06;;;;;;;1.40;0.75;;;28.30;92.80;;;;;;5005783;28;20222;-76
2021/09/10 12:14:43;;;;;;;3.25;0.60;;;29.00;92.60;;;;;;4988254;28;20182;-76
2021/09/10 12:17:23;;;;;;;0.55;0.55;;;27.70;93.60;;;;;;5005390;28;20166;-76
2021/09/10 12:19:55;;;;;;;0.40;0.40;;;26.50;94.50;;;;;;5006059;28;20182;-76
2021/09/10 12:22:41;;;;;;;0.75;0.75;;;25.60;94.60;;;;;;5007840;28;20166;-79
2021/09/10 12:25:27;;;;;;;1.48;1.17;;;25.00;96.30;;;;;;5009075;28;20212;-79
2021/09/10 12:27:57;;;;;;;1.27;0.50;;;24.70;96.00;;;;;;5011482;28;20172;-80
2021/09/10 12:30:27;;;;;;;0.30;0.30;;;24.20;96.50;;;;;;5008266;28;20830;-80
2021/09/10 12:32:53;;;;;;;0.40;0.40;;;24.30;96.70;;;;;;5006926;28;20177;-78
2021/09/10 12:35:20;;;;;;;5.13;2.15;;;24.00;96.70;;;;;;5007709;28;20202;-78
2021/09/10 12:37:54;;;;;;;0.95;0.93;;;24.20;96.60;;;;;;5023290;28;20177;-79
2021/09/10 12:40:20;;;;;;;0.80;0.80;;;24.40;97.70;;;;;;5032121;28;20179;-76
2021/09/10 12:42:48;;;;;;;0.32;0.32;;;24.40;97.50;;;;;;5049865;28;20229;-76
2021/09/10 12:45:15;;;;;;;4.95;1.13;;;24.40;96.30;;;;;;5047542;28;20207;-76
2021/09/10 12:47:42;;;;;;;0.85;0.85;;;24.30;96.40;;;;;;5048856;28;20191;-75
2021/09/10 12:50:08;;;;;;;0.63;0.50;;;24.30;96.00;;;;;;5066957;28;20234;-75
2021/09/10 12:52:35;;;;;;;0.40;0.40;;;24.40;96.30;;;;;;5049420;28;20227;-75